sensor_id;sensor_type;location;lat;lon;timestamp;temperature;humidity
837;DHT22;400;53.550;9.932;2023-07-31T00:01:10;17.30;1.00
837;DHT22;400;53.550;9.932;2023-07-31T00:03:38;17.30;1.00
837;DHT22;400;53.550;9.932;2023-07-31T00:06:05;17.30;1.00
837;DHT22;400;53.550;9.932;2023-07-31T00:08:32;17.30;1.00
837;DHT22;400;53.550;9.932;2023-07-31T00:10:59;17.30;1.00
837;DHT22;400;53.550;9.932;2023-07-31T00:13:26;17.20;1.00
837;DHT22;400;53.550;9.932;2023-07-31T00:15:53;17.20;1.00
837;DHT22;400;53.550;9.932;2023-07-31T00:18:19;17.20;1.00
837;DHT22;400;53.550;9.932;2023-07-31T00:20:48;17.20;1.00
837;DHT22;400;53.550;9.932;2023-07-31T00:23:15;17.30;1.00
837;DHT22;400;53.550;9.932;2023-07-31T00:25:42;17.40;1.00
837;DHT22;400;53.550;9.932;2023-07-31T00:28:09;17.30;1.00
837;DHT22;400;53.550;9.932;2023-07-31T00:30:36;17.40;1.00
837;DHT22;400;53.550;9.932;2023-07-31T00:33:03;17.30;1.00
837;DHT22;400;53.550;9.932;2023-07-31T00:35:30;17.20;1.00
837;DHT22;400;53.550;9.932;2023-07-31T00:37:59;17.20;1.00
837;DHT22;400;53.550;9.932;2023-07-31T00:40:26;17.30;1.00
837;DHT22;400;53.550;9.932;2023-07-31T00:42:52;17.30;1.00
837;DHT22;400;53.550;9.932;2023-07-31T00:45:19;17.30;1.00
837;DHT22;400;53.550;9.932;2023-07-31T00:47:48;17.20;1.00
837;DHT22;400;53.550;9.932;2023-07-31T00:50:16;17.20;1.00
837;DHT22;400;53.550;9.932;2023-07-31T00:52:43;17.20;1.00
837;DHT22;400;53.550;9.932;2023-07-31T00:55:11;17.10;1.00
837;DHT22;400;53.550;9.932;2023-07-31T00:57:38;17.10;1.00
837;DHT22;400;53.550;9.932;2023-07-31T01:00:08;17.00;1.00
837;DHT22;400;53.550;9.932;2023-07-31T01:02:36;17.10;1.00
837;DHT22;400;53.550;9.932;2023-07-31T01:05:04;17.10;1.00
837;DHT22;400;53.550;9.932;2023-07-31T01:07:37;17.10;1.00
837;DHT22;400;53.550;9.932;2023-07-31T01:10:11;17.00;1.00
837;DHT22;400;53.550;9.932;2023-07-31T01:12:41;17.00;1.00
837;DHT22;400;53.550;9.932;2023-07-31T01:15:09;17.00;1.00
837;DHT22;400;53.550;9.932;2023-07-31T01:17:37;17.00;1.00
837;DHT22;400;53.550;9.932;2023-07-31T01:20:07;17.00;1.00
837;DHT22;400;53.550;9.932;2023-07-31T01:25:50;16.90;1.00
837;DHT22;400;53.550;9.932;2023-07-31T01:28:22;17.00;1.00
837;DHT22;400;53.550;9.932;2023-07-31T01:30:53;17.00;1.00
837;DHT22;400;53.550;9.932;2023-07-31T01:33:22;17.00;1.00
837;DHT22;400;53.550;9.932;2023-07-31T01:35:50;17.00;1.00
837;DHT22;400;53.550;9.932;2023-07-31T01:38:21;17.00;1.00
837;DHT22;400;53.550;9.932;2023-07-31T01:40:53;17.00;1.00
837;DHT22;400;53.550;9.932;2023-07-31T01:43:20;17.00;1.00
837;DHT22;400;53.550;9.932;2023-07-31T01:45:47;17.00;1.00
837;DHT22;400;53.550;9.932;2023-07-31T01:48:13;17.00;1.00
837;DHT22;400;53.550;9.932;2023-07-31T01:50:40;16.90;1.00
837;DHT22;400;53.550;9.932;2023-07-31T01:53:07;16.90;1.00
837;DHT22;400;53.550;9.932;2023-07-31T01:55:34;16.90;1.00
837;DHT22;400;53.550;9.932;2023-07-31T01:58:03;16.80;1.00
837;DHT22;400;53.550;9.932;2023-07-31T02:00:30;16.90;1.00
837;DHT22;400;53.550;9.932;2023-07-31T02:02:58;16.90;1.00
837;DHT22;400;53.550;9.932;2023-07-31T02:05:25;16.90;1.00
837;DHT22;400;53.550;9.932;2023-07-31T02:07:53;16.90;1.00
837;DHT22;400;53.550;9.932;2023-07-31T02:10:20;17.00;1.00
837;DHT22;400;53.550;9.932;2023-07-31T02:12:47;17.00;1.00
837;DHT22;400;53.550;9.932;2023-07-31T02:15:15;17.00;1.00
837;DHT22;400;53.550;9.932;2023-07-31T02:17:42;17.00;1.00
837;DHT22;400;53.550;9.932;2023-07-31T02:20:09;17.00;1.00
837;DHT22;400;53.550;9.932;2023-07-31T02:22:36;17.00;1.00
837;DHT22;400;53.550;9.932;2023-07-31T02:25:04;17.10;1.00
837;DHT22;400;53.550;9.932;2023-07-31T02:27:31;17.10;1.00
837;DHT22;400;53.550;9.932;2023-07-31T02:29:58;17.10;1.00
837;DHT22;400;53.550;9.932;2023-07-31T02:32:27;17.10;1.00
837;DHT22;400;53.550;9.932;2023-07-31T02:34:54;17.00;1.00
837;DHT22;400;53.550;9.932;2023-07-31T02:37:21;17.10;1.00
837;DHT22;400;53.550;9.932;2023-07-31T02:39:47;17.10;1.00
837;DHT22;400;53.550;9.932;2023-07-31T02:42:15;17.10;1.00
837;DHT22;400;53.550;9.932;2023-07-31T02:44:41;17.10;1.00
837;DHT22;400;53.550;9.932;2023-07-31T02:47:09;17.00;1.00
837;DHT22;400;53.550;9.932;2023-07-31T02:49:37;17.00;1.00
837;DHT22;400;53.550;9.932;2023-07-31T02:52:05;17.00;1.00
837;DHT22;400;53.550;9.932;2023-07-31T02:54:32;17.00;1.00
837;DHT22;400;53.550;9.932;2023-07-31T02:56:58;17.00;1.00
837;DHT22;400;53.550;9.932;2023-07-31T02:59:25;17.00;1.00
837;DHT22;400;53.550;9.932;2023-07-31T03:01:55;16.90;1.00
837;DHT22;400;53.550;9.932;2023-07-31T03:04:22;16.90;1.00
837;DHT22;400;53.550;9.932;2023-07-31T03:06:50;16.90;1.00
837;DHT22;400;53.550;9.932;2023-07-31T03:09:17;16.90;1.00
837;DHT22;400;53.550;9.932;2023-07-31T03:11:44;17.00;1.00
837;DHT22;400;53.550;9.932;2023-07-31T03:14:11;17.00;1.00
837;DHT22;400;53.550;9.932;2023-07-31T03:16:38;16.90;1.00
837;DHT22;400;53.550;9.932;2023-07-31T03:19:05;16.90;1.00
837;DHT22;400;53.550;9.932;2023-07-31T03:21:31;16.90;1.00
837;DHT22;400;53.550;9.932;2023-07-31T03:24:01;16.90;1.00
837;DHT22;400;53.550;9.932;2023-07-31T03:26:31;16.90;1.00
837;DHT22;400;53.550;9.932;2023-07-31T03:29:00;16.80;1.00
837;DHT22;400;53.550;9.932;2023-07-31T03:31:31;16.90;1.00
837;DHT22;400;53.550;9.932;2023-07-31T03:33:58;17.00;1.00
837;DHT22;400;53.550;9.932;2023-07-31T03:36:25;17.00;1.00
837;DHT22;400;53.550;9.932;2023-07-31T03:38:52;17.00;1.00
837;DHT22;400;53.550;9.932;2023-07-31T03:41:21;17.00;1.00
837;DHT22;400;53.550;9.932;2023-07-31T03:43:50;17.00;1.00
837;DHT22;400;53.550;9.932;2023-07-31T03:46:20;17.00;1.00
837;DHT22;400;53.550;9.932;2023-07-31T03:48:48;17.00;1.00
837;DHT22;400;53.550;9.932;2023-07-31T03:51:15;16.90;1.00
837;DHT22;400;53.550;9.932;2023-07-31T03:53:42;16.90;1.00
837;DHT22;400;53.550;9.932;2023-07-31T03:56:09;16.90;1.00
837;DHT22;400;53.550;9.932;2023-07-31T03:58:38;16.80;1.00
837;DHT22;400;53.550;9.932;2023-07-31T04:01:05;16.80;1.00
837;DHT22;400;53.550;9.932;2023-07-31T04:03:32;16.90;1.00
837;DHT22;400;53.550;9.932;2023-07-31T04:05:59;16.90;1.00
837;DHT22;400;53.550;9.932;2023-07-31T04:08:26;16.90;1.00
837;DHT22;400;53.550;9.932;2023-07-31T04:10:53;16.90;1.00
837;DHT22;400;53.550;9.932;2023-07-31T04:13:22;16.90;1.00
837;DHT22;400;53.550;9.932;2023-07-31T04:15:51;16.90;1.00
837;DHT22;400;53.550;9.932;2023-07-31T04:18:17;17.00;1.00
837;DHT22;400;53.550;9.932;2023-07-31T04:20:45;16.90;1.00
837;DHT22;400;53.550;9.932;2023-07-31T04:23:12;17.00;1.00
837;DHT22;400;53.550;9.932;2023-07-31T04:25:39;16.90;1.00
837;DHT22;400;53.550;9.932;2023-07-31T04:28:05;16.90;1.00
837;DHT22;400;53.550;9.932;2023-07-31T04:30:33;16.90;1.00
837;DHT22;400;53.550;9.932;2023-07-31T04:33:01;16.90;1.00
837;DHT22;400;53.550;9.932;2023-07-31T04:35:28;17.00;1.00
837;DHT22;400;53.550;9.932;2023-07-31T04:37:55;17.00;1.00
837;DHT22;400;53.550;9.932;2023-07-31T04:40:24;16.90;1.00
837;DHT22;400;53.550;9.932;2023-07-31T04:42:51;17.00;1.00
837;DHT22;400;53.550;9.932;2023-07-31T04:45:18;16.90;1.00
837;DHT22;400;53.550;9.932;2023-07-31T04:47:45;16.90;1.00
837;DHT22;400;53.550;9.932;2023-07-31T04:50:13;16.80;1.00
837;DHT22;400;53.550;9.932;2023-07-31T04:52:42;16.80;17.00
837;DHT22;400;53.550;9.932;2023-07-31T04:55:12;16.80;30.20
837;DHT22;400;53.550;9.932;2023-07-31T04:57:39;16.90;21.80
837;DHT22;400;53.550;9.932;2023-07-31T05:00:07;16.90;16.40
837;DHT22;400;53.550;9.932;2023-07-31T05:02:34;16.90;15.10
837;DHT22;400;53.550;9.932;2023-07-31T05:05:01;16.90;15.90
837;DHT22;400;53.550;9.932;2023-07-31T05:07:29;16.90;7.20
837;DHT22;400;53.550;9.932;2023-07-31T05:09:56;16.80;28.60
837;DHT22;400;53.550;9.932;2023-07-31T05:12:23;16.80;39.30
837;DHT22;400;53.550;9.932;2023-07-31T05:14:50;16.70;57.90
837;DHT22;400;53.550;9.932;2023-07-31T05:17:17;16.70;95.10
837;DHT22;400;53.550;9.932;2023-07-31T05:19:49;16.60;99.90
837;DHT22;400;53.550;9.932;2023-07-31T05:22:23;16.80;99.90
837;DHT22;400;53.550;9.932;2023-07-31T05:24:56;16.80;99.90
837;DHT22;400;53.550;9.932;2023-07-31T05:27:24;16.70;99.90
837;DHT22;400;53.550;9.932;2023-07-31T05:29:51;16.70;99.80
837;DHT22;400;53.550;9.932;2023-07-31T05:32:18;16.80;99.90
837;DHT22;400;53.550;9.932;2023-07-31T05:34:47;16.90;99.90
837;DHT22;400;53.550;9.932;2023-07-31T05:37:14;16.60;94.20
837;DHT22;400;53.550;9.932;2023-07-31T05:39:41;16.80;99.90
837;DHT22;400;53.550;9.932;2023-07-31T05:42:09;16.80;99.90
837;DHT22;400;53.550;9.932;2023-07-31T05:44:36;16.80;95.30
837;DHT22;400;53.550;9.932;2023-07-31T05:47:04;16.90;94.60
837;DHT22;400;53.550;9.932;2023-07-31T05:49:32;16.80;99.90
837;DHT22;400;53.550;9.932;2023-07-31T05:51:59;16.80;99.90
837;DHT22;400;53.550;9.932;2023-07-31T05:54:26;16.80;99.90
837;DHT22;400;53.550;9.932;2023-07-31T05:56:53;16.90;99.90
837;DHT22;400;53.550;9.932;2023-07-31T05:59:21;16.90;99.90
837;DHT22;400;53.550;9.932;2023-07-31T06:01:47;16.90;99.90
837;DHT22;400;53.550;9.932;2023-07-31T06:04:15;17.10;69.50
837;DHT22;400;53.550;9.932;2023-07-31T06:06:43;17.20;29.10
837;DHT22;400;53.550;9.932;2023-07-31T06:09:13;17.30;17.30
837;DHT22;400;53.550;9.932;2023-07-31T06:11:43;17.40;3.50
837;DHT22;400;53.550;9.932;2023-07-31T06:14:11;17.40;1.00
837;DHT22;400;53.550;9.932;2023-07-31T06:16:39;17.50;1.00
837;DHT22;400;53.550;9.932;2023-07-31T06:19:06;17.60;1.00
837;DHT22;400;53.550;9.932;2023-07-31T06:21:33;17.50;1.00
837;DHT22;400;53.550;9.932;2023-07-31T06:24:03;17.60;1.00
837;DHT22;400;53.550;9.932;2023-07-31T06:26:30;17.50;1.00
837;DHT22;400;53.550;9.932;2023-07-31T06:28:57;17.60;1.00
837;DHT22;400;53.550;9.932;2023-07-31T06:31:24;17.60;1.00
837;DHT22;400;53.550;9.932;2023-07-31T06:33:52;17.70;1.00
837;DHT22;400;53.550;9.932;2023-07-31T06:36:19;17.60;1.00
837;DHT22;400;53.550;9.932;2023-07-31T06:38:46;17.40;1.00
837;DHT22;400;53.550;9.932;2023-07-31T06:41:13;17.40;1.00
837;DHT22;400;53.550;9.932;2023-07-31T06:43:40;17.50;1.00
837;DHT22;400;53.550;9.932;2023-07-31T06:46:07;17.60;1.00
837;DHT22;400;53.550;9.932;2023-07-31T06:48:34;17.60;1.00
837;DHT22;400;53.550;9.932;2023-07-31T06:51:03;17.70;1.00
837;DHT22;400;53.550;9.932;2023-07-31T06:53:31;17.40;1.00
837;DHT22;400;53.550;9.932;2023-07-31T06:55:58;17.50;1.00
837;DHT22;400;53.550;9.932;2023-07-31T06:58:25;17.60;1.00
837;DHT22;400;53.550;9.932;2023-07-31T07:00:51;17.70;1.00
837;DHT22;400;53.550;9.932;2023-07-31T07:03:20;17.50;1.00
837;DHT22;400;53.550;9.932;2023-07-31T07:05:48;17.50;1.00
837;DHT22;400;53.550;9.932;2023-07-31T07:08:16;17.50;1.00
837;DHT22;400;53.550;9.932;2023-07-31T07:10:43;17.50;1.00
837;DHT22;400;53.550;9.932;2023-07-31T07:13:10;17.50;1.00
837;DHT22;400;53.550;9.932;2023-07-31T07:15:38;17.40;27.60
837;DHT22;400;53.550;9.932;2023-07-31T07:18:05;17.30;55.30
837;DHT22;400;53.550;9.932;2023-07-31T07:20:31;17.40;99.90
837;DHT22;400;53.550;9.932;2023-07-31T07:22:58;17.40;89.00
837;DHT22;400;53.550;9.932;2023-07-31T07:25:27;17.50;99.90
837;DHT22;400;53.550;9.932;2023-07-31T07:27:57;17.50;99.90
837;DHT22;400;53.550;9.932;2023-07-31T07:30:28;17.60;97.00
837;DHT22;400;53.550;9.932;2023-07-31T07:32:58;17.50;64.30
837;DHT22;400;53.550;9.932;2023-07-31T07:35:26;17.50;91.30
837;DHT22;400;53.550;9.932;2023-07-31T07:37:52;17.50;99.90
837;DHT22;400;53.550;9.932;2023-07-31T07:40:20;17.60;99.90
837;DHT22;400;53.550;9.932;2023-07-31T07:42:49;17.50;99.00
837;DHT22;400;53.550;9.932;2023-07-31T07:45:16;17.60;93.60
837;DHT22;400;53.550;9.932;2023-07-31T07:47:43;17.70;76.20
837;DHT22;400;53.550;9.932;2023-07-31T07:50:10;17.60;51.60
837;DHT22;400;53.550;9.932;2023-07-31T07:52:37;17.70;67.20
837;DHT22;400;53.550;9.932;2023-07-31T07:55:05;17.70;33.50
837;DHT22;400;53.550;9.932;2023-07-31T07:57:32;17.90;58.30
837;DHT22;400;53.550;9.932;2023-07-31T08:00:00;18.10;12.70
837;DHT22;400;53.550;9.932;2023-07-31T08:02:27;18.20;1.00
837;DHT22;400;53.550;9.932;2023-07-31T08:04:56;18.40;1.00
837;DHT22;400;53.550;9.932;2023-07-31T08:07:24;18.10;1.00
837;DHT22;400;53.550;9.932;2023-07-31T08:09:51;18.30;1.00
837;DHT22;400;53.550;9.932;2023-07-31T08:12:18;18.50;1.00
837;DHT22;400;53.550;9.932;2023-07-31T08:14:46;18.60;1.00
837;DHT22;400;53.550;9.932;2023-07-31T08:17:14;18.60;1.00
837;DHT22;400;53.550;9.932;2023-07-31T08:19:41;18.60;1.00
837;DHT22;400;53.550;9.932;2023-07-31T08:22:10;18.60;1.00
837;DHT22;400;53.550;9.932;2023-07-31T08:24:37;18.70;1.00
837;DHT22;400;53.550;9.932;2023-07-31T08:27:06;18.80;1.00
837;DHT22;400;53.550;9.932;2023-07-31T08:29:33;18.90;1.00
837;DHT22;400;53.550;9.932;2023-07-31T08:32:00;19.00;1.00
837;DHT22;400;53.550;9.932;2023-07-31T08:34:28;19.00;1.00
837;DHT22;400;53.550;9.932;2023-07-31T08:36:57;19.00;1.00
837;DHT22;400;53.550;9.932;2023-07-31T08:39:26;19.20;1.00
837;DHT22;400;53.550;9.932;2023-07-31T08:42:00;19.10;1.00
837;DHT22;400;53.550;9.932;2023-07-31T08:44:29;19.30;1.00
837;DHT22;400;53.550;9.932;2023-07-31T08:46:59;19.20;1.00
837;DHT22;400;53.550;9.932;2023-07-31T08:49:30;19.30;1.00
837;DHT22;400;53.550;9.932;2023-07-31T08:51:58;19.30;1.00
837;DHT22;400;53.550;9.932;2023-07-31T08:54:25;19.30;1.00
837;DHT22;400;53.550;9.932;2023-07-31T08:56:56;19.30;1.00
837;DHT22;400;53.550;9.932;2023-07-31T08:59:25;19.50;1.00
837;DHT22;400;53.550;9.932;2023-07-31T09:01:55;19.30;1.00
837;DHT22;400;53.550;9.932;2023-07-31T09:04:24;19.00;1.00
837;DHT22;400;53.550;9.932;2023-07-31T09:06:59;18.80;1.00
837;DHT22;400;53.550;9.932;2023-07-31T09:09:26;18.60;1.00
837;DHT22;400;53.550;9.932;2023-07-31T09:11:53;18.70;1.00
837;DHT22;400;53.550;9.932;2023-07-31T09:14:23;18.80;1.00
837;DHT22;400;53.550;9.932;2023-07-31T09:16:54;18.70;1.00
837;DHT22;400;53.550;9.932;2023-07-31T09:19:28;18.70;1.00
837;DHT22;400;53.550;9.932;2023-07-31T09:21:57;18.70;1.00
837;DHT22;400;53.550;9.932;2023-07-31T09:24:28;18.80;1.00
837;DHT22;400;53.550;9.932;2023-07-31T09:26:57;18.70;1.00
837;DHT22;400;53.550;9.932;2023-07-31T09:29:26;19.00;1.00
837;DHT22;400;53.550;9.932;2023-07-31T09:31:54;19.10;1.00
837;DHT22;400;53.550;9.932;2023-07-31T09:34:28;19.00;1.00
837;DHT22;400;53.550;9.932;2023-07-31T09:36:55;19.00;1.00
837;DHT22;400;53.550;9.932;2023-07-31T09:39:23;19.10;1.00
837;DHT22;400;53.550;9.932;2023-07-31T09:41:54;19.30;1.00
837;DHT22;400;53.550;9.932;2023-07-31T09:44:21;19.30;1.00
837;DHT22;400;53.550;9.932;2023-07-31T09:46:48;19.50;1.00
837;DHT22;400;53.550;9.932;2023-07-31T09:49:17;19.60;1.00
837;DHT22;400;53.550;9.932;2023-07-31T09:51:50;19.70;1.00
837;DHT22;400;53.550;9.932;2023-07-31T09:54:20;19.70;1.00
837;DHT22;400;53.550;9.932;2023-07-31T09:56:53;19.70;1.00
837;DHT22;400;53.550;9.932;2023-07-31T09:59:29;19.80;1.00
837;DHT22;400;53.550;9.932;2023-07-31T10:02:00;19.90;1.00
837;DHT22;400;53.550;9.932;2023-07-31T10:04:31;19.90;1.00
837;DHT22;400;53.550;9.932;2023-07-31T10:07:00;19.80;1.00
837;DHT22;400;53.550;9.932;2023-07-31T10:09:31;19.60;1.00
837;DHT22;400;53.550;9.932;2023-07-31T10:12:00;19.40;1.00
837;DHT22;400;53.550;9.932;2023-07-31T10:14:30;19.40;1.00
837;DHT22;400;53.550;9.932;2023-07-31T10:16:57;19.50;1.00
837;DHT22;400;53.550;9.932;2023-07-31T10:19:26;19.40;1.00
837;DHT22;400;53.550;9.932;2023-07-31T10:21:54;19.10;1.00
837;DHT22;400;53.550;9.932;2023-07-31T10:24:23;19.00;1.00
837;DHT22;400;53.550;9.932;2023-07-31T10:26:52;18.80;1.00
837;DHT22;400;53.550;9.932;2023-07-31T10:29:22;18.80;1.00
837;DHT22;400;53.550;9.932;2023-07-31T10:31:51;19.00;1.00
837;DHT22;400;53.550;9.932;2023-07-31T10:34:22;19.10;1.00
837;DHT22;400;53.550;9.932;2023-07-31T10:37:23;19.00;1.00
837;DHT22;400;53.550;9.932;2023-07-31T10:40:00;19.20;1.00
837;DHT22;400;53.550;9.932;2023-07-31T10:42:33;18.90;1.00
837;DHT22;400;53.550;9.932;2023-07-31T10:45:10;18.80;1.00
837;DHT22;400;53.550;9.932;2023-07-31T10:47:46;18.70;1.00
837;DHT22;400;53.550;9.932;2023-07-31T10:50:20;18.80;1.00
837;DHT22;400;53.550;9.932;2023-07-31T10:52:50;18.80;1.00
837;DHT22;400;53.550;9.932;2023-07-31T10:55:29;19.00;1.00
837;DHT22;400;53.550;9.932;2023-07-31T10:57:57;18.90;1.00
837;DHT22;400;53.550;9.932;2023-07-31T11:00:27;19.00;1.00
837;DHT22;400;53.550;9.932;2023-07-31T11:03:00;19.10;1.00
837;DHT22;400;53.550;9.932;2023-07-31T11:05:48;19.00;1.00
837;DHT22;400;53.550;9.932;2023-07-31T11:08:18;19.00;1.00
837;DHT22;400;53.550;9.932;2023-07-31T11:10:47;19.10;1.00
837;DHT22;400;53.550;9.932;2023-07-31T11:13:14;19.20;1.00
837;DHT22;400;53.550;9.932;2023-07-31T11:15:43;19.10;1.00
837;DHT22;400;53.550;9.932;2023-07-31T11:18:14;18.90;1.00
837;DHT22;400;53.550;9.932;2023-07-31T11:20:43;18.80;1.00
837;DHT22;400;53.550;9.932;2023-07-31T11:23:16;18.60;51.70
837;DHT22;400;53.550;9.932;2023-07-31T11:25:45;18.70;73.00
837;DHT22;400;53.550;9.932;2023-07-31T11:28:17;18.80;87.90
837;DHT22;400;53.550;9.932;2023-07-31T11:30:59;18.80;48.50
837;DHT22;400;53.550;9.932;2023-07-31T11:33:31;18.60;95.90
837;DHT22;400;53.550;9.932;2023-07-31T11:36:04;18.60;99.90
837;DHT22;400;53.550;9.932;2023-07-31T11:38:32;18.50;99.90
837;DHT22;400;53.550;9.932;2023-07-31T11:41:01;18.50;99.90
837;DHT22;400;53.550;9.932;2023-07-31T11:43:30;18.50;99.90
837;DHT22;400;53.550;9.932;2023-07-31T11:46:00;18.40;99.90
837;DHT22;400;53.550;9.932;2023-07-31T11:48:29;18.30;99.90
837;DHT22;400;53.550;9.932;2023-07-31T11:51:00;18.40;99.90
837;DHT22;400;53.550;9.932;2023-07-31T11:53:31;18.20;99.90
837;DHT22;400;53.550;9.932;2023-07-31T11:56:00;18.40;99.90
837;DHT22;400;53.550;9.932;2023-07-31T11:58:29;18.40;99.90
837;DHT22;400;53.550;9.932;2023-07-31T12:00:59;18.30;99.90
837;DHT22;400;53.550;9.932;2023-07-31T12:03:26;18.40;99.90
837;DHT22;400;53.550;9.932;2023-07-31T12:05:53;18.40;99.90
837;DHT22;400;53.550;9.932;2023-07-31T12:08:21;18.30;99.90
837;DHT22;400;53.550;9.932;2023-07-31T12:10:51;18.30;94.70
837;DHT22;400;53.550;9.932;2023-07-31T12:13:21;18.30;94.10
837;DHT22;400;53.550;9.932;2023-07-31T12:15:48;18.30;59.10
837;DHT22;400;53.550;9.932;2023-07-31T12:18:19;18.30;71.80
837;DHT22;400;53.550;9.932;2023-07-31T12:20:53;18.40;47.80
837;DHT22;400;53.550;9.932;2023-07-31T12:23:22;18.30;29.30
837;DHT22;400;53.550;9.932;2023-07-31T12:26:01;18.30;20.70
837;DHT22;400;53.550;9.932;2023-07-31T12:28:29;18.40;38.60
837;DHT22;400;53.550;9.932;2023-07-31T12:30:59;18.50;29.30
837;DHT22;400;53.550;9.932;2023-07-31T12:33:32;18.30;1.00
837;DHT22;400;53.550;9.932;2023-07-31T12:36:01;18.30;33.00
837;DHT22;400;53.550;9.932;2023-07-31T12:38:28;18.30;60.60
837;DHT22;400;53.550;9.932;2023-07-31T12:40:55;18.10;51.10
837;DHT22;400;53.550;9.932;2023-07-31T12:43:22;18.20;99.90
837;DHT22;400;53.550;9.932;2023-07-31T12:45:49;18.20;71.60
837;DHT22;400;53.550;9.932;2023-07-31T12:48:16;18.30;57.30
837;DHT22;400;53.550;9.932;2023-07-31T12:50:45;18.40;79.80
837;DHT22;400;53.550;9.932;2023-07-31T12:53:12;18.50;92.40
837;DHT22;400;53.550;9.932;2023-07-31T12:55:39;18.40;71.30
837;DHT22;400;53.550;9.932;2023-07-31T12:58:06;18.50;99.90
837;DHT22;400;53.550;9.932;2023-07-31T13:00:33;18.50;99.90
837;DHT22;400;53.550;9.932;2023-07-31T13:03:02;18.50;99.90
837;DHT22;400;53.550;9.932;2023-07-31T13:05:31;18.40;71.20
837;DHT22;400;53.550;9.932;2023-07-31T13:08:00;18.40;94.80
837;DHT22;400;53.550;9.932;2023-07-31T13:10:28;18.40;39.50
837;DHT22;400;53.550;9.932;2023-07-31T13:12:55;18.30;12.30
837;DHT22;400;53.550;9.932;2023-07-31T13:15:22;18.20;29.60
837;DHT22;400;53.550;9.932;2023-07-31T13:17:49;18.30;41.60
837;DHT22;400;53.550;9.932;2023-07-31T13:20:16;18.30;43.00
837;DHT22;400;53.550;9.932;2023-07-31T13:22:44;18.40;59.50
837;DHT22;400;53.550;9.932;2023-07-31T13:25:12;18.40;19.70
837;DHT22;400;53.550;9.932;2023-07-31T13:27:39;18.50;59.20
837;DHT22;400;53.550;9.932;2023-07-31T13:30:07;18.60;54.00
837;DHT22;400;53.550;9.932;2023-07-31T13:32:36;18.70;71.80
837;DHT22;400;53.550;9.932;2023-07-31T13:35:09;18.80;48.40
837;DHT22;400;53.550;9.932;2023-07-31T13:37:37;18.90;71.90
837;DHT22;400;53.550;9.932;2023-07-31T13:40:06;18.90;93.10
837;DHT22;400;53.550;9.932;2023-07-31T13:42:35;18.90;77.60
837;DHT22;400;53.550;9.932;2023-07-31T13:45:01;19.00;99.90
837;DHT22;400;53.550;9.932;2023-07-31T13:47:34;19.10;99.90
837;DHT22;400;53.550;9.932;2023-07-31T13:50:08;19.10;99.90
837;DHT22;400;53.550;9.932;2023-07-31T13:52:39;19.10;99.90
837;DHT22;400;53.550;9.932;2023-07-31T13:55:13;19.00;99.90
837;DHT22;400;53.550;9.932;2023-07-31T13:57:45;19.00;99.90
837;DHT22;400;53.550;9.932;2023-07-31T14:00:13;19.00;99.90
837;DHT22;400;53.550;9.932;2023-07-31T14:02:40;19.00;99.90
837;DHT22;400;53.550;9.932;2023-07-31T14:05:08;19.20;99.90
837;DHT22;400;53.550;9.932;2023-07-31T14:07:35;19.20;99.90
837;DHT22;400;53.550;9.932;2023-07-31T14:10:02;19.20;99.90
837;DHT22;400;53.550;9.932;2023-07-31T14:12:30;19.30;99.90
837;DHT22;400;53.550;9.932;2023-07-31T14:15:01;19.30;99.90
837;DHT22;400;53.550;9.932;2023-07-31T14:17:29;19.20;99.90
837;DHT22;400;53.550;9.932;2023-07-31T14:19:55;19.20;99.90
837;DHT22;400;53.550;9.932;2023-07-31T14:22:29;19.20;99.90
837;DHT22;400;53.550;9.932;2023-07-31T14:24:56;19.20;99.90
837;DHT22;400;53.550;9.932;2023-07-31T14:27:22;19.10;99.90
837;DHT22;400;53.550;9.932;2023-07-31T14:29:51;19.20;99.90
837;DHT22;400;53.550;9.932;2023-07-31T14:32:21;19.20;99.90
837;DHT22;400;53.550;9.932;2023-07-31T14:34:49;19.20;99.90
837;DHT22;400;53.550;9.932;2023-07-31T14:37:16;19.10;99.90
837;DHT22;400;53.550;9.932;2023-07-31T14:39:43;19.20;99.90
837;DHT22;400;53.550;9.932;2023-07-31T14:42:09;19.20;1.00
837;DHT22;400;53.550;9.932;2023-07-31T14:44:37;19.10;1.00
837;DHT22;400;53.550;9.932;2023-07-31T14:47:09;19.10;1.00
837;DHT22;400;53.550;9.932;2023-07-31T14:49:38;19.00;1.00
837;DHT22;400;53.550;9.932;2023-07-31T14:52:05;19.10;1.00
837;DHT22;400;53.550;9.932;2023-07-31T14:54:32;19.00;1.00
837;DHT22;400;53.550;9.932;2023-07-31T14:57:00;19.10;1.00
837;DHT22;400;53.550;9.932;2023-07-31T14:59:29;19.10;1.00
837;DHT22;400;53.550;9.932;2023-07-31T15:01:59;19.10;1.00
837;DHT22;400;53.550;9.932;2023-07-31T15:04:30;19.00;1.00
837;DHT22;400;53.550;9.932;2023-07-31T15:07:08;19.00;1.00
837;DHT22;400;53.550;9.932;2023-07-31T15:09:35;18.80;1.00
837;DHT22;400;53.550;9.932;2023-07-31T15:12:03;18.80;1.00
837;DHT22;400;53.550;9.932;2023-07-31T15:14:30;18.80;20.40
837;DHT22;400;53.550;9.932;2023-07-31T15:16:57;18.80;72.50
837;DHT22;400;53.550;9.932;2023-07-31T15:19:24;18.90;63.10
837;DHT22;400;53.550;9.932;2023-07-31T15:21:51;18.90;32.20
837;DHT22;400;53.550;9.932;2023-07-31T15:24:19;18.90;30.70
837;DHT22;400;53.550;9.932;2023-07-31T15:26:46;19.00;22.30
837;DHT22;400;53.550;9.932;2023-07-31T15:29:14;19.10;1.00
837;DHT22;400;53.550;9.932;2023-07-31T15:31:45;19.00;1.00
837;DHT22;400;53.550;9.932;2023-07-31T15:34:12;19.10;1.00
837;DHT22;400;53.550;9.932;2023-07-31T15:36:39;19.10;1.00
837;DHT22;400;53.550;9.932;2023-07-31T15:39:06;19.10;1.00
837;DHT22;400;53.550;9.932;2023-07-31T15:41:36;19.10;1.00
837;DHT22;400;53.550;9.932;2023-07-31T15:44:03;19.10;1.00
837;DHT22;400;53.550;9.932;2023-07-31T15:46:30;19.10;1.00
837;DHT22;400;53.550;9.932;2023-07-31T15:48:56;19.00;1.00
837;DHT22;400;53.550;9.932;2023-07-31T15:51:24;19.00;1.00
837;DHT22;400;53.550;9.932;2023-07-31T15:53:53;19.00;1.00
837;DHT22;400;53.550;9.932;2023-07-31T15:56:22;19.10;1.00
837;DHT22;400;53.550;9.932;2023-07-31T15:58:53;19.10;1.00
837;DHT22;400;53.550;9.932;2023-07-31T16:01:26;19.00;1.00
837;DHT22;400;53.550;9.932;2023-07-31T16:03:54;19.00;1.00
837;DHT22;400;53.550;9.932;2023-07-31T16:06:23;19.10;1.00
837;DHT22;400;53.550;9.932;2023-07-31T16:08:53;19.10;1.00
837;DHT22;400;53.550;9.932;2023-07-31T16:11:22;18.90;1.00
837;DHT22;400;53.550;9.932;2023-07-31T16:13:50;19.00;1.00
837;DHT22;400;53.550;9.932;2023-07-31T16:16:20;18.90;1.00
837;DHT22;400;53.550;9.932;2023-07-31T16:18:55;18.70;1.00
837;DHT22;400;53.550;9.932;2023-07-31T16:21:26;18.70;99.90
837;DHT22;400;53.550;9.932;2023-07-31T16:23:58;18.60;99.90
837;DHT22;400;53.550;9.932;2023-07-31T16:26:33;18.60;99.90
837;DHT22;400;53.550;9.932;2023-07-31T16:29:06;18.70;99.90
837;DHT22;400;53.550;9.932;2023-07-31T16:31:35;18.70;99.90
837;DHT22;400;53.550;9.932;2023-07-31T16:34:02;18.70;99.90
837;DHT22;400;53.550;9.932;2023-07-31T16:36:29;18.60;99.90
837;DHT22;400;53.550;9.932;2023-07-31T16:38:56;18.60;99.90
837;DHT22;400;53.550;9.932;2023-07-31T16:41:23;18.50;99.90
837;DHT22;400;53.550;9.932;2023-07-31T16:43:50;18.50;99.90
837;DHT22;400;53.550;9.932;2023-07-31T16:46:18;18.60;99.90
837;DHT22;400;53.550;9.932;2023-07-31T16:48:46;18.70;99.90
837;DHT22;400;53.550;9.932;2023-07-31T16:51:17;18.60;99.90
837;DHT22;400;53.550;9.932;2023-07-31T16:53:46;18.60;99.90
837;DHT22;400;53.550;9.932;2023-07-31T16:56:15;18.60;99.90